Stanhope, Prince Edward Island

Past 24 Hour Conditions

This table is a summary of hourly weather conditions for the past 24 hours. This summary includes the following parameters: temperature, humidity, dew point, wind speed and direction, air pressure, visibility and/or wind chill and humidex.
Date / Time
(ADT)
Conditions Temp (°F) Humidity (%) Dew Point (°F) Wind (mph) Pressure (inches) Vis (mi) Humidex
02 August 2014
3:00 N/A 65 88 61 SSW 5 N/A N/A *
2:00 N/A 65 84 60 SW 4 N/A N/A *
1:00 N/A 67 78 60 SW 7 N/A N/A *
00:00 N/A 67 77 59 SSW 4 N/A N/A *
01 August 2014
23:00 N/A 66 74 58 SSW 3 N/A N/A *
22:00 N/A 68 71 58 SSW 3 N/A N/A *
21:00 N/A 70 69 59 SSW 2 N/A N/A 77
20:00 N/A 76 55 59 S 3 N/A N/A 83
19:00 N/A 79 49 58 SSW 4 N/A N/A 86
18:00 N/A 81 42 56 SSW 6 N/A N/A 86
17:00 N/A 81 41 55 SW 3 N/A N/A 85
16:00 N/A 82   42 57 SSW 6 N/A N/A 87
15:00 N/A 77 65 64 ENE 6 N/A N/A 87
14:00 N/A 76 66 64 NNE 4 N/A N/A 87
13:00 N/A 75 64 62 NNE 6 N/A N/A 85
12:00 N/A 74 63 60 NNE 5 N/A N/A 82
11:00 N/A 74 59 59 WSW 2 N/A N/A 81
10:00 N/A 71 65 59 SW 3 N/A N/A 78
9:00 N/A 69 65 57 SSW 3 N/A N/A *
8:00 N/A 66 72 57 SW 6 N/A N/A *
7:00 N/A 63 78 56 SW 6 N/A N/A *
6:00 N/A 60   90 57 SW 6 N/A N/A *
5:00 N/A 60   93 58 SSW 4 N/A N/A *
4:00 N/A 62 93 60 S 4 N/A N/A *
3:00 N/A 60   92 58 SSW 3 N/A N/A *
N/A
Not available
 ↑ 
Highest temperature
 ↓ 
Lowest temperature
*
Value not significant.

If you require additional historical weather information, please visit Climate Data Online.